Latest Weather Observations for Casino

IDN60801

Issued at 10:42 am EDT Saturday 15 December 2018 (issued every 10 minutes, with the page automatically refreshed every 10 minutes)

About weather observations | Map of weather stations | Latest weather observations for NSW | Other Formats
Station Details ID: 058208 Name: CASINO AIRPORT AWS Lat: -28.88 Lon: 153.06 Height: 20.9 m
Data from the previous 72 hours. | See also: Recent months at Casino
Date/Time
EDT
Temp
°C
App
Temp
°C
Dew
Point
°C
Rel
Hum
%
Delta-T
°C
Wind Press
QNH
hPa
Press
MSL
hPa
Rain since
9am
mm
Dir  Spd
km/h
Gust
km/h
Spd
kts
Gust
kts
15/10:30am 29.5 31.2 20.1 57 6.2 NNE 11 19 6 10 1008.7 1008.6 0.0
15/10:00am 29.5 29.3 19.8 56 6.4 NNW 20 28 11 15 1008.7 1008.6 0.0
15/09:30am 28.0 30.0 20.8 65 4.8 NW 11 15 6 8 1008.7 1008.6 0.0
15/09:00am 26.7 29.6 21.7 74 3.3 NW 9 13 5 7 1009.0 1008.9 1.6
15/08:30am 27.0 29.7 22.2 75 3.2 NNW 11 17 6 9 1009.0 1008.9 1.6
15/08:00am 25.2 29.6 22.1 83 2.1 NNW 2 9 1 5 1008.6 1008.5 1.6
15/07:30am 23.8 27.7 21.9 89 1.3 SE 4 7 2 4 1008.2 1008.1 1.6
15/07:00am 22.7 27.0 21.2 91 1.0 CALM 0 7 0 4 1008.0 1007.9 1.6
15/06:30am 22.4 25.2 20.9 91 1.0 SW 7 9 4 5 1007.6 1007.5 1.4
15/06:00am 22.1 24.9 20.4 90 1.1 WSW 6 7 3 4 1007.0 1006.9 1.4
15/05:30am 22.2 26.1 20.3 89 1.2 CALM 0 0 0 0 1006.8 1006.7 1.4
15/05:00am 22.9 25.9 21.2 90 1.1 NE 7 13 4 7 1006.5 1006.4 1.4
15/04:30am 22.2 24.2 20.7 91 1.0 E 11 13 6 7 1005.9 1005.8 1.4
15/04:00am 22.2 25.1 20.7 91 1.0 SE 6 7 3 4 1005.4 1005.3 1.4
15/03:30am 21.6 23.5 19.7 89 1.2 ESE 9 13 5 7 1005.6 1005.5 1.4
15/03:00am 22.7 26.8 20.8 89 1.2 CALM 0 0 0 0 1005.7 1005.6 1.4
15/02:30am 22.9 26.3 21.0 89 1.2 SE 4 9 2 5 1005.8 1005.7 1.4
15/02:00am 23.1 26.7 21.2 89 1.2 SSE 4 7 2 4 1006.2 1006.1 1.4
15/01:30am 22.9 26.0 21.0 89 1.2 SE 6 9 3 5 1006.3 1006.2 1.4
15/01:00am 23.0 25.8 20.9 88 1.4 SE 7 9 4 5 1006.6 1006.5 1.4
15/12:30am 22.8 25.5 20.7 88 1.4 SE 7 9 4 5 1006.8 1006.7 1.4
15/12:00am 23.1 26.7 20.6 86 1.6 WSW 2 7 1 4 1006.7 1006.6 1.4
 
Date/Time
EDT
Temp
°C
App
Temp
°C
Dew
Point
°C
Rel
Hum
%
Delta-T
°C
Wind Press
QNH
hPa
Press
MSL
hPa
Rain since
9am
mm
Dir  Spd
km/h
Gust
km/h
Spd
kts
Gust
kts
14/11:30pm 23.4 27.0 20.5 84 1.9 NE 2 6 1 3 1006.5 1006.4 1.4
14/11:00pm 23.5 26.2 20.2 82 2.1 ENE 6 7 3 4 1006.4 1006.3 1.4
14/10:30pm 23.8 25.8 20.7 83 2.0 ENE 11 15 6 8 1006.1 1006.0 1.4
14/10:00pm 23.5 26.1 20.4 83 2.0 ENE 7 9 4 5 1005.7 1005.6 1.4
14/09:30pm 23.9 27.0 21.0 84 1.9 NNE 6 7 3 4 1005.6 1005.5 1.4
14/09:00pm 24.0 26.4 20.9 83 2.0 SW 9 11 5 6 1005.7 1005.6 1.4
14/08:30pm 25.2 26.1 20.9 77 2.8 NNE 17 20 9 11 1005.4 1005.3 1.0
14/08:00pm 25.5 26.2 20.5 74 3.3 N 17 24 9 13 1005.7 1005.6 1.0
14/07:30pm 26.9 27.5 20.3 67 4.3 NNE 17 26 9 14 1004.8 1004.7 0.0
14/07:00pm 27.2 27.1 20.0 64 4.7 NNE 20 30 11 16 1003.7 1003.6 0.0
14/06:30pm 27.8 26.5 19.8 61 5.2 NNE 26 33 14 18 1003.1 1003.0 0.0
14/06:00pm 28.5 27.5 19.7 59 5.8 NE 24 33 13 18 1002.8 1002.7 0.0
14/05:30pm 29.2 28.1 19.5 56 6.3 NNE 24 35 13 19 1002.3 1002.2 0.0
14/05:00pm 30.2 29.4 19.3 52 7.1 NE 22 28 12 15 1001.7 1001.6 0.0
14/04:30pm 31.3 30.1 19.3 49 7.9 NE 24 32 13 17 1001.6 1001.5 0.0
14/04:00pm 33.1 34.2 19.6 45 8.9 NE 13 22 7 12 1002.2 1002.1 0.0
14/03:30pm 32.5 32.8 19.7 46 8.4 NE 17 26 9 14 1002.3 1002.2 0.0
14/03:00pm 31.3 30.8 18.6 46 8.3 NNE 19 24 10 13 1002.6 1002.5 0.0
14/02:30pm 32.7 32.6 19.6 46 8.6 NNW 19 26 10 14 1002.9 1002.8 0.0
14/02:00pm 32.6 31.7 19.8 46 8.5 N 24 33 13 18 1003.3 1003.2 0.0
14/01:30pm 32.0 31.9 19.9 48 8.0 NNW 20 32 11 17 1003.8 1003.7 0.0
14/01:00pm 30.0 28.2 18.8 51 7.3 NNW 26 43 14 23 1004.0 1003.9 0.0
14/12:30pm 30.0 29.0 18.8 51 7.2 NNW 22 32 12 17 1004.1 1004.0 0.0
14/12:00pm 29.0 27.9 18.7 53 6.7 N 22 32 12 17 1004.1 1004.0 0.0
14/11:30am 28.0 28.9 19.2 58 5.7 NNE 13 20 7 11 1004.3 1004.2 0.0
14/11:00am 27.4 27.7 19.7 63 5.0 N 17 30 9 16 1004.5 1004.4 0.0
14/10:30am 27.2 28.7 20.5 67 4.4 N 13 19 7 10 1004.6 1004.5 0.0
14/10:00am 26.0 27.1 19.6 68 4.2 NE 13 17 7 9 1004.8 1004.7 0.0
14/09:30am 25.0 27.5 21.1 79 2.6 E 9 17 5 9 1005.0 1004.9 0.0
14/09:00am 23.9 26.3 20.8 83 2.0 E 9 15 5 8 1004.8 1004.7 0.8
14/08:30am 23.1 26.3 20.6 86 1.6 S 4 7 2 4 1005.0 1004.9 0.8
14/08:00am 22.4 25.1 20.7 90 1.1 E 7 11 4 6 1004.6 1004.5 0.8
14/07:30am 21.7 24.4 20.2 91 1.0 S 6 9 3 5 1004.5 1004.4 0.8
14/07:00am 21.2 24.8 19.7 91 1.0 CALM 0 0 0 0 1004.3 1004.2 0.8
14/06:30am 21.0 24.5 19.5 91 1.0 CALM 0 6 0 3 1004.2 1004.1 0.8
14/06:00am 20.7 22.8 19.0 90 1.1 SSE 6 11 3 6 1004.1 1004.0 0.8
14/05:30am 21.1 23.4 19.4 90 1.1 NNW 6 7 3 4 1003.6 1003.5 0.8
14/05:00am 20.6 22.7 18.9 90 1.1 NE 6 9 3 5 1003.7 1003.6 0.8
14/04:30am 20.9 23.4 19.0 89 1.2 E 4 7 2 4 1003.0 1002.9 0.8
14/04:00am 21.0 23.1 18.9 88 1.3 SW 6 7 3 4 1003.2 1003.1 0.8
14/03:30am 21.8 24.0 19.5 87 1.5 SW 7 9 4 5 1003.2 1003.1 0.8
14/03:00am 21.9 24.5 19.3 85 1.7 NNW 4 9 2 5 1003.0 1002.9 0.8
14/02:30am 22.3 24.5 19.5 84 1.8 NNW 7 9 4 5 1003.5 1003.4 0.8
14/02:00am 22.2 24.3 19.4 84 1.8 NNE 7 11 4 6 1003.7 1003.6 0.8
14/01:30am 22.2 24.1 19.7 86 1.6 N 9 11 5 6 1004.0 1003.9 0.8
14/01:00am 22.5 24.7 19.7 84 1.8 NNE 7 11 4 6 1004.8 1004.7 0.8
14/12:30am 22.9 26.4 19.5 81 2.2 CALM 0 0 0 0 1005.3 1005.2 0.6
14/12:00am 23.5 26.0 19.0 76 2.9 W 4 9 2 5 1005.6 1005.5 0.0
 
Date/Time
EDT
Temp
°C
App
Temp
°C
Dew
Point
°C
Rel
Hum
%
Delta-T
°C
Wind Press
QNH
hPa
Press
MSL
hPa
Rain since
9am
mm
Dir  Spd
km/h
Gust
km/h
Spd
kts
Gust
kts
13/11:30pm 24.8 26.1 18.5 68 4.0 W 9 15 5 8 1006.1 1006.0 0.0
13/11:00pm 25.7 25.7 18.1 63 4.8 NW 15 20 8 11 1006.3 1006.2 0.0
13/10:30pm 25.6 27.2 18.3 64 4.6 WNW 7 9 4 5 1006.3 1006.2 0.0
13/10:00pm 26.1 25.7 18.0 61 5.1 NW 17 24 9 13 1005.8 1005.7 0.0
13/09:30pm 26.6 25.7 18.2 60 5.3 NNW 20 28 11 15 1005.4 1005.3 0.0
13/09:00pm 25.8 26.2 18.2 63 4.8 N 13 17 7 9 1004.8 1004.7 0.0
13/08:30pm 26.3 26.7 18.2 61 5.1 N 13 19 7 10 1004.2 1004.1 0.0
13/08:00pm 26.6 26.5 17.9 59 5.5 NNE 15 20 8 11 1003.6 1003.5 0.0
13/07:30pm 27.3 26.8 17.8 56 6.0 NNE 17 24 9 13 1003.0 1002.9 0.0
13/07:00pm 27.8 27.5 18.2 56 6.1 NNE 17 22 9 12 1002.3 1002.2 0.0
13/06:30pm 28.5 27.3 18.3 54 6.5 NNE 22 30 12 16 1001.7 1001.6 0.0
13/06:00pm 29.3 27.3 18.4 51 7.0 NE 26 37 14 20 1001.2 1001.1 0.0
13/05:30pm 30.9 28.2 17.6 45 8.5 NNE 28 37 15 20 1000.7 1000.6 0.0
13/05:00pm 32.3 30.1 17.0 40 9.8 NNE 24 33 13 18 1000.6 1000.5 0.0
13/04:30pm 34.1 31.4 14.6 31 12.0 N 22 33 12 18 1000.9 1000.8 0.0
13/04:00pm 33.8 30.1 13.8 30 12.2 N 26 37 14 20 1001.4 1001.3 0.0
13/03:30pm 33.3 29.6 13.9 31 11.8 N 26 41 14 22 1002.1 1002.0 0.0
13/03:00pm 33.8 30.4 14.8 32 11.8 N 26 37 14 20 1003.1 1003.0 0.0
13/02:30pm 32.7 29.0 13.8 31 11.5 N 26 35 14 19 1003.8 1003.7 0.0
13/02:00pm 33.8 30.7 15.7 33 11.4 NNW 26 37 14 20 1004.4 1004.3 0.0
13/01:30pm 32.7 28.8 14.3 32 11.3 NNW 28 39 15 21 1004.7 1004.6 0.0
13/01:00pm 31.8 29.9 15.3 37 10.2 N 19 33 10 18 1005.3 1005.2 0.0
13/12:30pm 31.2 29.6 16.4 41 9.3 N 20 30 11 16 1006.0 1005.9 0.0
13/12:00pm 29.0 28.3 16.5 46 7.8 NNE 15 22 8 12 1006.6 1006.5 0.0
13/11:30am 28.8 28.3 17.7 51 7.0 N 17 24 9 13 1007.4 1007.3 0.0
13/11:00am 27.9 26.8 17.4 52 6.6 NNW 19 26 10 14 1007.7 1007.6 0.0
13/10:30am 26.4 27.0 18.5 62 5.0 NNE 13 22 7 12 1008.1 1008.0 0.0
13/10:00am 25.0 25.0 18.0 65 4.4 N 15 22 8 12 1008.7 1008.6 0.0
13/09:30am 23.8 24.7 18.4 72 3.4 NNW 11 15 6 8 1009.1 1009.0 0.0
13/09:00am 22.6 24.8 19.2 81 2.2 N 6 9 3 5 1009.4 1009.3 6.2
13/08:30am 21.3 23.9 19.2 88 1.3 WSW 4 7 2 4 1009.5 1009.4 6.2
13/08:00am 20.3 22.8 19.1 93 0.8 NW 4 7 2 4 1009.5 1009.4 6.2
13/07:30am 19.8 22.5 18.6 93 0.7 WNW 2 6 1 3 1009.5 1009.4 6.2
13/07:00am 19.4 22.3 18.2 93 0.7 CALM 0 0 0 0 1009.6 1009.5 6.2
13/06:30am 18.9 21.6 17.7 93 0.7 CALM 0 0 0 0 1009.5 1009.4 6.2
13/06:00am 18.8 21.4 17.6 93 0.7 CALM 0 0 0 0 1009.2 1009.1 6.2
13/05:30am 19.0 20.6 17.8 93 0.7 SSW 6 7 3 4 1009.0 1008.9 6.2
13/05:00am 18.8 20.3 17.6 93 0.7 SW 6 9 3 5 1009.1 1009.0 6.2
13/04:30am 19.3 22.1 18.0 92 0.8 CALM 0 0 0 0 1009.1 1009.0 6.2
13/04:00am 19.5 21.7 18.3 93 0.7 NNE 4 7 2 4 1009.0 1008.9 6.2
13/03:30am 19.5 21.1 18.3 93 0.7 NE 7 9 4 5 1009.3 1009.2 6.2
13/03:00am 19.4 22.3 18.2 93 0.7 CALM 0 7 0 4 1009.8 1009.7 6.2
13/02:30am 19.2 22.0 18.0 93 0.7 CALM 0 0 0 0 1009.9 1009.8 6.2
13/02:00am 19.3 21.0 18.1 93 0.7 SSW 6 7 3 4 1010.4 1010.3 6.2
13/01:30am 19.0 20.5 17.7 92 0.8 S 6 7 3 4 1010.6 1010.5 6.2
13/01:00am 19.3 22.1 18.0 92 0.8 CALM 0 0 0 0 1010.8 1010.7 6.2
13/12:30am 19.8 22.8 18.5 92 0.8 CALM 0 0 0 0 1010.7 1010.6 6.0
13/12:00am 19.4 22.2 17.9 91 0.9 CALM 0 0 0 0 1010.9 1010.8 6.0
 
Date/Time
EDT
Temp
°C
App
Temp
°C
Dew
Point
°C
Rel
Hum
%
Delta-T
°C
Wind Press
QNH
hPa
Press
MSL
hPa
Rain since
9am
mm
Dir  Spd
km/h
Gust
km/h
Spd
kts
Gust
kts
12/11:30pm 19.9 21.7 18.4 91 0.9 SW 6 7 3 4 1011.6 1011.5 6.0
12/11:00pm 20.2 22.6 18.7 91 0.9 N 4 9 2 5 1011.3 1011.2 6.0
12/10:30pm 20.4 22.5 18.9 91 0.9 NNW 6 9 3 5 1011.7 1011.6 6.0
12/10:00pm 20.4 22.5 18.9 91 0.9 WNW 6 7 3 4 1012.2 1012.1 6.0
12/09:30pm 20.7 22.6 19.0 90 1.1 NNW 7 9 4 5 1012.0 1011.9 6.0
12/09:00pm 20.5 23.7 18.8 90 1.1 CALM 0 0 0 0 1012.4 1012.3 6.0
12/08:30pm 20.5 22.5 18.8 90 1.1 SSW 6 7 3 4 1012.9 1012.8 5.4
12/08:00pm 20.7 22.2 18.8 89 1.2 SSE 9 11 5 6 1012.5 1012.4 4.8
12/07:30pm 20.7 22.4 18.6 88 1.3 SSE 7 11 4 6 1012.5 1012.4 3.6
12/07:00pm 21.6 21.5 17.8 79 2.4 ESE 15 19 8 10 1012.1 1012.0 1.0
12/06:30pm 23.7 22.0 16.2 63 4.6 E 20 28 11 15 1011.2 1011.1 0.0
12/06:00pm 25.1 22.3 15.4 55 5.9 E 24 30 13 16 1010.4 1010.3 0.0
12/05:30pm 26.4 23.5 16.1 53 6.3 E 26 33 14 18 1010.3 1010.2 0.0
12/05:00pm 27.5 25.0 16.1 49 7.0 E 24 32 13 17 1010.1 1010.0 0.0
12/04:30pm 27.7 24.4 16.0 49 7.2 E 28 39 15 21 1009.8 1009.7 0.0
12/04:00pm 28.6 25.7 16.2 47 7.7 ENE 26 35 14 19 1010.2 1010.1 0.0
12/03:30pm 29.0 26.5 17.2 49 7.4 E 26 46 14 25 1010.6 1010.5 0.0
12/03:00pm 29.6 26.6 16.8 46 8.0 E 28 39 15 21 1011.1 1011.0 0.0
12/02:30pm 30.7 29.1 17.4 45 8.5 E 22 33 12 18 1011.4 1011.3 0.0
12/02:00pm 29.8 29.1 17.3 47 7.9 E 17 24 9 13 1012.1 1012.0 0.0
12/01:30pm 29.4 29.3 16.9 47 7.9 E 13 20 7 11 1012.4 1012.3 0.0
12/01:00pm 29.2 28.2 15.7 44 8.3 E 15 22 8 12 1012.7 1012.6 0.0
12/12:30pm 29.2 29.3 17.4 49 7.5 ESE 13 20 7 11 1013.3 1013.2 0.0
12/12:00pm 28.2 28.0 15.8 47 7.6 SE 11 17 6 9 1013.9 1013.7 0.0
12/11:30am 28.1 27.5 16.7 50 7.1 NNE 15 24 8 13 1014.0 1013.8 0.0
12/11:00am 27.2 27.1 15.9 50 6.9 SE 11 22 6 12 1014.5 1014.4 0.0

Other Formats:

Comma delimited format used in spreadsheet applications
http://www.bom.gov.au/fwo/IDN60801/IDN60801.94573.axf

JavaScript Object Notation format (JSON) in row-major order
http://www.bom.gov.au/fwo/IDN60801/IDN60801.94573.json